This is the latest recevied weather packets stored in our database for station/object OE3MHU-12. If no packets are shown the sender has not sent any weather packets the latest 10 day(s).
| Time | Temp. | Humidity | Pressure | Rain* | Wind** | Luminosity | Snow |
|---|---|---|---|---|---|---|---|
| 1788142389 | 15° C | 85% | 1014 hPa | 0 mm | - | - | - |
| 1788140589 | 15° C | 85% | 1014 hPa | 0 mm | - | - | - |
| 1788138790 | 14.44° C | 85% | 1013.9 hPa | 0 mm | - | - | - |
| 1788136989 | 15° C | 83% | 1013.8 hPa | 0 mm | - | - | - |
| 1788135190 | 15° C | 82% | 1013.8 hPa | 0 mm | - | - | - |
| 1788133390 | 15.56° C | 82% | 1014 hPa | 0 mm | - | - | - |
| 1788131590 | 16.11° C | 81% | 1014.3 hPa | 0 mm | - | - | - |
| 1788129790 | 16.67° C | 80% | 1014.3 hPa | 0 mm | - | - | - |
| 1788126190 | 17.22° C | 78% | 1014.4 hPa | 0 mm | - | - | - |
| 1788122590 | 17.78° C | 75% | 1014.4 hPa | 0 mm | - | - | - |
| 1788120790 | 18.89° C | 73% | 1014.1 hPa | 0 mm | - | - | - |
| 1788119268 | 19.44° C | 71% | 1014.2 hPa | 0 mm | - | - | - |
| 1788118990 | 19.44° C | 71% | 1014.2 hPa | 0 mm | - | - | - |
| 1788117190 | 20.56° C | 69% | 1014.1 hPa | 0 mm | - | - | - |
| 1788115398 | 21.67° C | 66% | 1014.1 hPa | 0 mm | - | - | - |
| 1788113591 | 23.33° C | 61% | 1013.9 hPa | 0 mm | - | - | - |
| 1788111791 | 25.56° C | 53% | 1013.6 hPa | 0 mm | - | - | - |
| 1788108191 | 27.78° C | 46% | 1013.5 hPa | 0 mm | - | - | - |
| 1788106392 | 28.33° C | 44% | 1013.5 hPa | 0 mm | - | - | - |
| 1788104591 | 28.33° C | 44% | 1013.7 hPa | 0 mm | - | - | - |
| 1788102791 | 28.89° C | 41% | 1013.6 hPa | 0 mm | - | - | - |
| 1788100991 | 28.89° C | 43% | 1013.6 hPa | 0 mm | - | - | - |
| 1788099191 | 28.89° C | 42% | 1013.8 hPa | 0 mm | - | - | - |
| 1788094024 | 28.89° C | 47% | 1014.3 hPa | 0 mm | - | - | - |
| 1788093792 | 28.89° C | 47% | 1014.3 hPa | 0 mm | - | - | - |
* Rain latest hour (hover to see other rain measurements)
** Current wind speed in m/s (hover to see current wind gust speed)